createdAt,value
2023-01-17T00:00:03.794Z,14.33
2023-01-17T00:02:34.674Z,14.49
2023-01-17T00:05:23.642Z,14.86
2023-01-17T00:08:11.956Z,14.66
2023-01-17T00:10:42.614Z,15.04
2023-01-17T00:13:14.279Z,14.83
2023-01-17T00:15:45.145Z,14.86
2023-01-17T00:18:17.841Z,14.85
2023-01-17T00:21:06.969Z,14.43
2023-01-17T00:23:55.450Z,14.69
2023-01-17T00:26:26.102Z,14.65
2023-01-17T00:28:56.810Z,14.80
2023-01-17T00:31:27.763Z,15.29
2023-01-17T00:34:06.557Z,14.68
2023-01-17T00:36:36.615Z,15.04
2023-01-17T00:39:06.471Z,14.66
2023-01-17T00:41:36.429Z,14.83
2023-01-17T00:44:24.545Z,14.31
2023-01-17T00:47:12.552Z,14.79
2023-01-17T00:50:00.937Z,14.81
2023-01-17T00:52:49.236Z,14.18
2023-01-17T00:55:37.572Z,14.78
2023-01-17T00:58:27.343Z,14.59
2023-01-17T01:01:17.244Z,14.56
2023-01-17T01:04:05.564Z,14.90
2023-01-17T01:06:53.906Z,15.14
2023-01-17T01:09:42.779Z,15.33
2023-01-17T01:12:31.434Z,15.05
2023-01-17T01:15:19.599Z,15.24
2023-01-17T01:18:07.988Z,15.00
2023-01-17T01:20:56.928Z,14.87
2023-01-17T01:23:45.333Z,15.25
2023-01-17T01:26:34.622Z,15.36
2023-01-17T01:29:22.936Z,14.93
2023-01-17T01:32:11.326Z,15.45
2023-01-17T01:34:41.901Z,14.83
2023-01-17T01:37:12.449Z,15.06
2023-01-17T01:39:42.957Z,15.32
2023-01-17T01:42:17.173Z,15.38
2023-01-17T01:44:55.535Z,14.78
2023-01-17T01:47:34.310Z,15.03
2023-01-17T01:50:10.253Z,14.91
2023-01-17T01:52:43.891Z,15.07
2023-01-17T01:55:20.277Z,15.69
2023-01-17T01:57:53.740Z,15.75
2023-01-17T02:00:27.268Z,15.25
2023-01-17T02:03:01.273Z,15.22
2023-01-17T02:05:33.275Z,15.29
2023-01-17T02:08:07.959Z,15.59
2023-01-17T02:10:41.016Z,14.89
2023-01-17T02:13:12.988Z,15.57
2023-01-17T02:15:49.378Z,15.60
2023-01-17T02:18:43.854Z,14.92
2023-01-17T02:21:26.294Z,15.62
2023-01-17T02:24:34.176Z,15.41
2023-01-17T02:27:07.937Z,15.37
2023-01-17T02:29:41.410Z,14.75
2023-01-17T02:32:17.543Z,15.61
2023-01-17T02:34:50.794Z,15.42
2023-01-17T02:37:34.940Z,15.49
2023-01-17T02:40:08.430Z,15.07
2023-01-17T02:42:47.771Z,15.40
2023-01-17T02:45:20.454Z,15.03
2023-01-17T02:47:51.012Z,15.61
2023-01-17T02:50:24.449Z,15.64
2023-01-17T02:53:12.608Z,15.46
2023-01-17T02:55:59.227Z,14.54
2023-01-17T02:58:35.484Z,15.41
2023-01-17T03:01:18.179Z,15.14
2023-01-17T03:04:03.967Z,15.40
2023-01-17T03:06:49.270Z,14.73
2023-01-17T03:09:22.819Z,15.20
2023-01-17T03:11:54.194Z,15.42
2023-01-17T03:14:24.726Z,15.07
2023-01-17T03:16:55.477Z,15.58
2023-01-17T03:19:26.068Z,14.95
2023-01-17T03:21:56.673Z,14.40
2023-01-17T03:24:27.229Z,14.54
2023-01-17T03:26:57.785Z,14.72
2023-01-17T03:29:28.375Z,14.42
2023-01-17T03:31:58.987Z,14.75
2023-01-17T03:34:29.672Z,13.72
2023-01-17T03:37:00.248Z,13.98
2023-01-17T03:39:31.932Z,14.04
2023-01-17T03:42:02.481Z,14.20
2023-01-17T03:44:34.388Z,13.31
2023-01-17T03:47:05.213Z,14.76
2023-01-17T03:49:35.771Z,14.05
2023-01-17T03:52:06.753Z,14.33
2023-01-17T03:54:37.298Z,14.75
2023-01-17T03:57:08.713Z,15.10
2023-01-17T03:59:39.266Z,13.82
2023-01-17T04:02:09.960Z,14.72
2023-01-17T04:04:40.552Z,14.24
2023-01-17T04:07:11.133Z,14.29
2023-01-17T04:09:41.719Z,14.67
2023-01-17T04:12:12.264Z,14.90
2023-01-17T04:14:42.821Z,13.91
2023-01-17T04:17:15.474Z,14.75
2023-01-17T04:19:46.415Z,14.53
2023-01-17T04:22:18.395Z,14.14
2023-01-17T04:24:49.007Z,14.68
2023-01-17T04:27:19.500Z,15.00
2023-01-17T04:29:50.093Z,14.80
2023-01-17T04:32:20.771Z,13.93
2023-01-17T04:34:51.349Z,13.56
2023-01-17T04:37:21.910Z,14.30
2023-01-17T04:39:53.493Z,13.23
2023-01-17T04:42:24.045Z,13.65
2023-01-17T04:44:54.628Z,13.33
2023-01-17T04:47:26.367Z,14.02
2023-01-17T04:49:57.116Z,13.21
2023-01-17T04:52:27.680Z,14.82
2023-01-17T04:54:58.253Z,14.02
2023-01-17T04:57:28.980Z,13.89
2023-01-17T05:00:01.045Z,13.95
2023-01-17T05:02:31.800Z,13.92
2023-01-17T05:05:02.445Z,13.23
2023-01-17T05:07:35.682Z,14.18
2023-01-17T05:10:06.351Z,14.44
2023-01-17T05:12:37.193Z,14.63
2023-01-17T05:15:08.630Z,14.39
2023-01-17T05:17:39.155Z,13.62
2023-01-17T05:20:11.765Z,13.91
2023-01-17T05:22:42.304Z,13.78
2023-01-17T05:25:13.423Z,14.14
2023-01-17T05:27:45.053Z,13.69
2023-01-17T05:30:15.832Z,13.86
2023-01-17T05:32:54.159Z,14.40
2023-01-17T05:35:27.581Z,14.03
2023-01-17T05:37:58.300Z,14.71
2023-01-17T05:40:31.539Z,13.78
2023-01-17T05:43:04.652Z,13.87
2023-01-17T05:45:35.451Z,14.11
2023-01-17T05:48:06.788Z,14.34
2023-01-17T05:50:39.152Z,14.52
2023-01-17T05:53:12.544Z,14.14
2023-01-17T05:55:43.911Z,14.32
2023-01-17T05:58:17.749Z,14.45
2023-01-17T06:00:48.818Z,13.89
2023-01-17T06:03:19.537Z,14.58
2023-01-17T06:05:50.364Z,14.13
2023-01-17T06:08:21.894Z,14.91
2023-01-17T06:10:52.914Z,14.57
2023-01-17T06:13:24.500Z,14.39
2023-01-17T06:15:56.639Z,14.29
2023-01-17T06:18:27.607Z,14.31
2023-01-17T06:20:58.397Z,14.42
2023-01-17T06:23:30.024Z,13.64
2023-01-17T06:26:04.143Z,14.85
2023-01-17T06:28:34.703Z,14.25
2023-01-17T06:31:09.846Z,14.48
2023-01-17T06:33:40.478Z,14.60
2023-01-17T06:36:11.247Z,14.48
2023-01-17T06:38:41.793Z,14.55
2023-01-17T06:41:12.537Z,14.31
2023-01-17T06:43:43.065Z,13.90
2023-01-17T06:46:13.606Z,13.96
2023-01-17T06:48:44.232Z,13.76
2023-01-17T06:51:15.075Z,13.77
2023-01-17T06:53:45.655Z,13.42
2023-01-17T06:56:16.237Z,13.57
2023-01-17T06:58:51.353Z,13.75
2023-01-17T07:01:21.982Z,13.58
2023-01-17T07:03:54.231Z,13.36
2023-01-17T07:06:26.386Z,14.23
2023-01-17T07:08:59.157Z,13.21
2023-01-17T07:11:29.738Z,13.81
2023-01-17T07:14:01.403Z,14.14
2023-01-17T07:16:32.244Z,13.77
2023-01-17T07:19:02.921Z,13.20
2023-01-17T07:21:33.468Z,13.63
2023-01-17T07:24:04.001Z,13.11
2023-01-17T07:26:34.720Z,13.82
2023-01-17T07:29:06.899Z,13.91
2023-01-17T07:31:43.127Z,14.12
2023-01-17T07:34:13.704Z,14.03
2023-01-17T07:36:44.281Z,13.07
2023-01-17T07:39:14.898Z,13.08
2023-01-17T07:41:45.502Z,13.71
2023-01-17T07:44:16.441Z,13.95
2023-01-17T07:46:47.045Z,13.66
2023-01-17T07:49:17.647Z,13.56
2023-01-17T07:51:51.393Z,14.17
2023-01-17T07:54:21.929Z,12.99
2023-01-17T07:56:52.522Z,13.47
2023-01-17T07:59:23.107Z,13.73
2023-01-17T08:01:54.247Z,13.67
2023-01-17T08:04:27.282Z,13.11
2023-01-17T08:06:59.405Z,12.69
2023-01-17T08:09:29.949Z,12.89
2023-01-17T08:12:01.625Z,12.40
2023-01-17T08:14:32.156Z,13.23
2023-01-17T08:17:14.652Z,13.00
2023-01-17T08:19:45.438Z,12.96
2023-01-17T08:22:16.027Z,13.01
2023-01-17T08:24:46.596Z,12.85
2023-01-17T08:27:17.125Z,12.49
2023-01-17T08:29:48.596Z,12.75
2023-01-17T08:32:20.065Z,12.78
2023-01-17T08:34:50.615Z,12.82
2023-01-17T08:37:21.146Z,12.47
2023-01-17T08:39:51.709Z,13.12
2023-01-17T08:42:22.347Z,13.34
2023-01-17T08:44:52.894Z,13.69
2023-01-17T08:47:23.553Z,12.35
2023-01-17T08:49:54.420Z,12.63
2023-01-17T08:52:25.022Z,13.03
2023-01-17T08:54:55.815Z,11.77
2023-01-17T08:57:26.373Z,12.79
2023-01-17T08:59:57.292Z,13.07
2023-01-17T09:02:27.815Z,12.61
2023-01-17T09:04:58.401Z,11.96
2023-01-17T09:07:29.156Z,12.57
2023-01-17T09:09:59.715Z,12.41
2023-01-17T09:12:36.405Z,12.50
2023-01-17T09:15:08.748Z,12.77
2023-01-17T09:17:39.328Z,12.10
2023-01-17T09:20:10.783Z,13.23
2023-01-17T09:22:41.333Z,13.58
2023-01-17T09:25:11.956Z,12.62
2023-01-17T09:27:43.909Z,12.97
2023-01-17T09:30:16.135Z,12.85
2023-01-17T09:32:48.010Z,12.90
2023-01-17T09:35:18.572Z,14.19
2023-01-17T09:37:54.929Z,12.97
2023-01-17T09:40:26.784Z,12.62
2023-01-17T09:43:01.657Z,12.26
2023-01-17T09:45:34.614Z,13.29
2023-01-17T09:48:08.119Z,13.68
2023-01-17T09:50:47.486Z,13.79
2023-01-17T09:53:23.344Z,13.59
2023-01-17T09:56:02.440Z,13.31
2023-01-17T09:58:53.849Z,13.58
2023-01-17T10:01:33.615Z,13.31
2023-01-17T10:04:18.386Z,13.74
2023-01-17T10:07:25.852Z,13.92
2023-01-17T10:10:01.965Z,14.78
2023-01-17T10:12:41.127Z,14.47
2023-01-17T10:15:34.104Z,14.23
2023-01-17T10:18:29.935Z,13.81
2023-01-17T10:21:08.681Z,14.09
2023-01-17T10:23:44.630Z,14.55
2023-01-17T10:26:27.076Z,14.42
2023-01-17T10:29:06.408Z,14.98
2023-01-17T10:31:42.390Z,14.21
2023-01-17T10:34:18.752Z,14.27
2023-01-17T10:36:52.526Z,15.44
2023-01-17T10:39:26.677Z,14.44
2023-01-17T10:42:05.848Z,14.45
2023-01-17T10:44:41.936Z,14.58
2023-01-17T10:47:15.278Z,15.02
2023-01-17T10:49:53.101Z,15.04
2023-01-17T10:52:32.293Z,15.04
2023-01-17T10:55:17.844Z,14.85
2023-01-17T10:57:49.979Z,15.10
2023-01-17T11:00:26.046Z,14.27
2023-01-17T11:02:56.934Z,15.13
2023-01-17T11:05:33.137Z,15.43
2023-01-17T11:08:06.558Z,16.45
2023-01-17T11:10:42.673Z,16.22
2023-01-17T11:13:28.585Z,17.08
2023-01-17T11:16:07.873Z,17.08
2023-01-17T11:18:42.975Z,18.07
2023-01-17T11:21:26.215Z,16.90
2023-01-17T11:23:58.610Z,17.11
2023-01-17T11:26:34.391Z,17.53
2023-01-17T11:29:37.221Z,17.25
2023-01-17T11:32:26.718Z,16.66
2023-01-17T11:35:21.268Z,16.31
2023-01-17T11:38:11.890Z,16.64
2023-01-17T11:40:45.948Z,15.69
2023-01-17T11:43:27.713Z,15.69
2023-01-17T11:46:18.960Z,16.34
2023-01-17T11:49:00.267Z,15.29
2023-01-17T11:51:38.370Z,16.23
2023-01-17T11:54:21.029Z,16.14
2023-01-17T11:56:53.053Z,16.54
2023-01-17T11:59:26.752Z,16.89
2023-01-17T12:02:16.536Z,16.23
2023-01-17T12:05:08.143Z,16.19
2023-01-17T12:08:02.061Z,17.09
2023-01-17T12:10:44.383Z,15.89
2023-01-17T12:13:54.914Z,17.46
2023-01-17T12:17:02.706Z,17.05
2023-01-17T12:19:43.701Z,17.94
2023-01-17T12:22:35.271Z,18.03
2023-01-17T12:25:28.385Z,16.90
2023-01-17T12:28:11.500Z,17.03
2023-01-17T12:31:09.488Z,17.66
2023-01-17T12:34:00.083Z,17.66
2023-01-17T12:36:54.499Z,16.71
2023-01-17T12:39:29.003Z,16.94
2023-01-17T12:42:13.033Z,16.35
2023-01-17T12:44:51.082Z,15.99
2023-01-17T12:47:22.941Z,16.49
2023-01-17T12:50:20.160Z,15.63
2023-01-17T12:53:02.369Z,16.07
2023-01-17T12:55:38.763Z,16.19
2023-01-17T12:58:12.118Z,16.70
2023-01-17T13:00:45.529Z,15.51
2023-01-17T13:03:44.674Z,15.51
2023-01-17T13:06:18.027Z,17.37
2023-01-17T13:08:51.399Z,16.79
2023-01-17T13:11:28.754Z,16.29
2023-01-17T13:14:00.055Z,17.09
2023-01-17T13:17:00.696Z,17.08
2023-01-17T13:19:49.158Z,16.06
2023-01-17T13:22:24.252Z,17.51
2023-01-17T13:25:14.995Z,16.62
2023-01-17T13:28:06.194Z,15.77
2023-01-17T13:30:56.178Z,16.94
2023-01-17T13:33:38.422Z,16.18
2023-01-17T13:36:40.223Z,15.88
2023-01-17T13:39:29.873Z,17.02
2023-01-17T13:42:37.709Z,15.72
2023-01-17T13:45:21.267Z,15.92
2023-01-17T13:47:52.876Z,16.83
2023-01-17T13:50:41.227Z,15.33
2023-01-17T13:53:39.887Z,16.46
2023-01-17T13:56:26.325Z,16.00
2023-01-17T13:58:59.480Z,17.08
2023-01-17T14:01:43.353Z,17.50
2023-01-17T14:04:14.415Z,16.24
2023-01-17T14:06:49.095Z,15.58
2023-01-17T14:09:29.267Z,15.76
2023-01-17T14:12:08.309Z,16.03
2023-01-17T14:14:44.585Z,15.66
2023-01-17T14:17:25.028Z,15.72
2023-01-17T14:19:59.985Z,15.54
2023-01-17T14:22:34.659Z,16.46
2023-01-17T14:25:17.790Z,15.08
2023-01-17T14:27:51.525Z,15.02
2023-01-17T14:30:30.918Z,16.46
2023-01-17T14:33:08.464Z,16.28
2023-01-17T14:35:42.012Z,15.53
2023-01-17T14:38:31.819Z,15.92
2023-01-17T14:41:14.087Z,15.76
2023-01-17T14:43:45.632Z,17.21
2023-01-17T14:46:21.687Z,17.22
2023-01-17T14:48:55.398Z,16.03
2023-01-17T14:51:25.977Z,16.20
2023-01-17T14:54:02.656Z,16.06
2023-01-17T14:56:33.894Z,17.28
2023-01-17T14:59:18.415Z,16.07
2023-01-17T15:02:07.666Z,15.77
2023-01-17T15:04:34.222Z,16.70
2023-01-17T15:07:05.387Z,16.58
2023-01-17T15:09:38.503Z,16.32
2023-01-17T15:12:13.959Z,16.74
2023-01-17T15:14:48.240Z,16.34
2023-01-17T15:17:27.537Z,16.40
2023-01-17T15:20:01.666Z,16.25
2023-01-17T15:22:32.246Z,16.41
2023-01-17T15:25:03.375Z,15.25
2023-01-17T15:27:34.230Z,15.67
2023-01-17T15:30:07.215Z,14.85
2023-01-17T15:32:38.104Z,14.47
2023-01-17T15:35:10.216Z,15.30
2023-01-17T15:37:41.904Z,14.30
2023-01-17T15:40:21.087Z,14.02
2023-01-17T15:43:01.924Z,14.80
2023-01-17T15:45:34.269Z,15.39
2023-01-17T15:48:27.273Z,14.43
2023-01-17T15:51:00.691Z,14.42
2023-01-17T15:53:33.492Z,14.66
2023-01-17T15:56:24.983Z,14.94
2023-01-17T15:58:56.890Z,14.24
2023-01-17T16:01:29.578Z,14.40
2023-01-17T16:04:00.127Z,14.82
2023-01-17T16:06:42.952Z,15.92
2023-01-17T16:09:24.461Z,16.33
2023-01-17T16:11:54.915Z,13.91
2023-01-17T16:14:26.570Z,14.91
2023-01-17T16:16:57.972Z,15.92
2023-01-17T16:19:28.486Z,15.78
2023-01-17T16:22:00.497Z,14.71
2023-01-17T16:24:32.464Z,14.83
2023-01-17T16:27:04.585Z,14.64
2023-01-17T16:29:36.245Z,14.28
2023-01-17T16:32:08.596Z,14.87
2023-01-17T16:34:40.290Z,15.15
2023-01-17T16:37:12.240Z,14.81
2023-01-17T16:39:42.690Z,14.91
2023-01-17T16:42:13.591Z,14.56
2023-01-17T16:44:44.103Z,14.26
2023-01-17T16:47:14.580Z,14.78
2023-01-17T16:49:45.207Z,14.93
2023-01-17T16:52:15.771Z,15.96
2023-01-17T16:54:46.308Z,15.66
2023-01-17T16:57:17.216Z,13.95
2023-01-17T16:59:50.797Z,14.13
2023-01-17T17:02:21.396Z,14.95
2023-01-17T17:04:53.516Z,14.79
2023-01-17T17:07:24.194Z,14.60
2023-01-17T17:09:54.719Z,14.52
2023-01-17T17:12:25.464Z,14.25
2023-01-17T17:14:55.985Z,14.61
2023-01-17T17:17:27.473Z,14.86
2023-01-17T17:19:58.084Z,14.80
2023-01-17T17:22:28.630Z,15.38
2023-01-17T17:24:59.190Z,14.37
2023-01-17T17:27:29.758Z,15.29
2023-01-17T17:30:00.430Z,14.96
2023-01-17T17:32:31.583Z,15.25
2023-01-17T17:35:02.260Z,14.81
2023-01-17T17:37:34.566Z,14.95
2023-01-17T17:40:07.246Z,14.69
2023-01-17T17:42:37.695Z,14.77
2023-01-17T17:45:08.471Z,13.78
2023-01-17T17:47:38.955Z,14.93
2023-01-17T17:50:10.570Z,14.27
2023-01-17T17:52:41.234Z,14.56
2023-01-17T17:55:13.287Z,15.47
2023-01-17T17:57:43.887Z,14.31
2023-01-17T18:00:15.082Z,14.32
2023-01-17T18:02:48.668Z,14.30
2023-01-17T18:05:19.304Z,14.51
2023-01-17T18:07:51.100Z,15.23
2023-01-17T18:10:21.821Z,14.49
2023-01-17T18:12:52.338Z,14.41
2023-01-17T18:15:24.290Z,14.44
2023-01-17T18:17:56.188Z,14.61
2023-01-17T18:20:29.280Z,13.86
2023-01-17T18:22:59.783Z,14.88
2023-01-17T18:25:30.277Z,14.22
2023-01-17T18:28:00.853Z,13.84
2023-01-17T18:30:33.983Z,15.09
2023-01-17T18:33:04.506Z,13.53
2023-01-17T18:35:34.996Z,15.69
2023-01-17T18:38:05.580Z,15.55
2023-01-17T18:40:36.667Z,15.40
2023-01-17T18:43:07.192Z,14.84
2023-01-17T18:45:38.778Z,14.78
2023-01-17T18:48:09.411Z,15.07
2023-01-17T18:50:39.905Z,14.63
2023-01-17T18:53:11.936Z,15.06
2023-01-17T18:55:42.564Z,14.44
2023-01-17T18:58:13.159Z,14.69
2023-01-17T19:00:43.783Z,15.20
2023-01-17T19:03:14.428Z,15.12
2023-01-17T19:05:47.116Z,15.30
2023-01-17T19:08:18.158Z,14.70
2023-01-17T19:10:51.203Z,15.05
2023-01-17T19:13:21.837Z,14.86
2023-01-17T19:15:53.053Z,15.05
2023-01-17T19:18:28.624Z,13.87
2023-01-17T19:21:10.797Z,14.06
2023-01-17T19:23:41.591Z,14.52
2023-01-17T19:26:14.282Z,13.92
2023-01-17T19:28:47.387Z,14.36
2023-01-17T19:31:23.803Z,15.09
2023-01-17T19:33:57.698Z,15.70
2023-01-17T19:36:31.260Z,15.14
2023-01-17T19:39:05.703Z,15.25
2023-01-17T19:41:36.985Z,14.48
2023-01-17T19:44:09.875Z,14.81
2023-01-17T19:46:41.631Z,14.41
2023-01-17T19:49:12.329Z,13.77
2023-01-17T19:51:43.879Z,14.91
2023-01-17T19:54:15.273Z,14.89
2023-01-17T19:56:45.884Z,15.10
2023-01-17T19:59:16.510Z,14.72
2023-01-17T20:01:49.045Z,15.20
2023-01-17T20:04:19.673Z,14.91
2023-01-17T20:06:50.354Z,14.53
2023-01-17T20:09:20.916Z,14.92
2023-01-17T20:11:51.473Z,15.48
2023-01-17T20:14:23.132Z,14.69
2023-01-17T20:16:53.964Z,14.48
2023-01-17T20:19:24.524Z,14.69
2023-01-17T20:21:56.203Z,14.56
2023-01-17T20:24:26.778Z,14.51
2023-01-17T20:26:58.144Z,15.16
2023-01-17T20:29:28.688Z,15.77
2023-01-17T20:31:59.288Z,15.61
2023-01-17T20:34:31.887Z,15.15
2023-01-17T20:37:02.551Z,15.20
2023-01-17T20:39:33.082Z,14.72
2023-01-17T20:42:04.777Z,14.19
2023-01-17T20:44:35.327Z,14.33
2023-01-17T20:47:06.738Z,14.46
2023-01-17T20:49:37.247Z,14.03
2023-01-17T20:52:08.089Z,14.29
2023-01-17T20:54:38.651Z,14.21
2023-01-17T20:57:09.240Z,14.05
2023-01-17T20:59:39.760Z,14.30
2023-01-17T21:02:12.805Z,14.53
2023-01-17T21:04:45.076Z,14.47
2023-01-17T21:07:15.669Z,15.24
2023-01-17T21:09:46.313Z,15.67
2023-01-17T21:12:17.126Z,15.68
2023-01-17T21:14:47.695Z,15.59
2023-01-17T21:17:19.431Z,15.57
2023-01-17T21:19:50.029Z,15.52
2023-01-17T21:22:20.618Z,15.48
2023-01-17T21:24:51.284Z,15.28
2023-01-17T21:27:22.972Z,15.20
2023-01-17T21:29:56.066Z,14.95
2023-01-17T21:32:28.154Z,14.79
2023-01-17T21:34:58.740Z,14.66
2023-01-17T21:37:29.262Z,14.97
2023-01-17T21:40:00.400Z,14.67
2023-01-17T21:45:01.998Z,14.35
2023-01-17T21:47:32.627Z,14.55
2023-01-17T21:50:03.283Z,13.66
2023-01-17T21:52:33.811Z,13.66
2023-01-17T21:55:22.431Z,13.55
2023-01-17T21:58:10.621Z,13.89
2023-01-17T22:00:45.779Z,14.14
2023-01-17T22:03:16.323Z,13.66
2023-01-17T22:05:46.877Z,13.96
2023-01-17T22:08:17.437Z,13.50
2023-01-17T22:10:48.291Z,14.14
2023-01-17T22:13:20.431Z,14.12
2023-01-17T22:15:59.133Z,13.87
2023-01-17T22:18:31.473Z,13.84
2023-01-17T22:21:07.479Z,13.82
2023-01-17T22:23:38.743Z,14.14
2023-01-17T22:26:11.056Z,14.18
2023-01-17T22:28:43.300Z,14.16
2023-01-17T22:31:20.941Z,14.04
2023-01-17T22:33:57.590Z,14.24
2023-01-17T22:36:29.354Z,13.85
2023-01-17T22:39:00.043Z,13.86
2023-01-17T22:41:32.928Z,14.01
2023-01-17T22:44:05.632Z,14.03
2023-01-17T22:46:41.606Z,13.99
2023-01-17T22:49:15.922Z,13.59
2023-01-17T22:51:46.459Z,13.64
2023-01-17T22:54:17.492Z,13.40
2023-01-17T22:56:49.221Z,13.59
2023-01-17T22:59:19.782Z,13.57
2023-01-17T23:01:50.319Z,13.25
2023-01-17T23:04:20.836Z,13.09
2023-01-17T23:06:51.498Z,13.48
2023-01-17T23:09:22.155Z,12.99
2023-01-17T23:11:55.304Z,12.87
2023-01-17T23:14:54.875Z,12.92
2023-01-17T23:17:43.828Z,12.73
2023-01-17T23:20:14.930Z,12.80
2023-01-17T23:22:45.810Z,12.88
2023-01-17T23:25:16.536Z,12.79
2023-01-17T23:28:06.335Z,12.46
2023-01-17T23:30:40.280Z,12.55
2023-01-17T23:33:12.988Z,12.77
2023-01-17T23:35:47.213Z,12.46
2023-01-17T23:38:31.325Z,13.35
2023-01-17T23:41:22.324Z,13.20
2023-01-17T23:43:57.885Z,13.17
2023-01-17T23:46:30.327Z,13.15
2023-01-17T23:49:00.944Z,13.11
2023-01-17T23:51:31.564Z,12.76
2023-01-17T23:54:03.673Z,13.06
2023-01-17T23:56:34.157Z,12.66
2023-01-17T23:59:04.661Z,13.11
